sensor_id;sensor_type;location;lat;lon;timestamp;P1;durP1;ratioP1;P2;durP2;ratioP2
69317;SDS011;56457;52.190;4.440;2022-09-16T00:00:51;8.60;;;1.87;;
69317;SDS011;56457;52.190;4.440;2022-09-16T00:01:52;14.93;;;1.98;;
69317;SDS011;56457;52.190;4.440;2022-09-16T00:02:53;23.05;;;2.50;;
69317;SDS011;56457;52.190;4.440;2022-09-16T00:03:54;18.88;;;2.88;;
69317;SDS011;56457;52.190;4.440;2022-09-16T00:04:55;14.80;;;2.50;;
69317;SDS011;56457;52.190;4.440;2022-09-16T00:05:56;20.87;;;2.43;;
69317;SDS011;56457;52.190;4.440;2022-09-16T00:06:57;12.90;;;2.70;;
69317;SDS011;56457;52.190;4.440;2022-09-16T00:07:57;13.40;;;2.10;;
69317;SDS011;56457;52.190;4.440;2022-09-16T00:08:58;15.77;;;2.03;;
69317;SDS011;56457;52.190;4.440;2022-09-16T00:10:03;11.38;;;2.17;;
69317;SDS011;56457;52.190;4.440;2022-09-16T00:11:04;21.55;;;2.38;;
69317;SDS011;56457;52.190;4.440;2022-09-16T00:12:05;19.97;;;2.73;;
69317;SDS011;56457;52.190;4.440;2022-09-16T00:13:05;25.88;;;3.35;;
69317;SDS011;56457;52.190;4.440;2022-09-16T00:14:06;24.75;;;3.10;;
69317;SDS011;56457;52.190;4.440;2022-09-16T00:15:07;34.03;;;4.10;;
69317;SDS011;56457;52.190;4.440;2022-09-16T00:17:09;31.25;;;3.13;;
69317;SDS011;56457;52.190;4.440;2022-09-16T00:18:10;31.63;;;4.15;;
69317;SDS011;56457;52.190;4.440;2022-09-16T00:19:11;32.35;;;5.97;;
69317;SDS011;56457;52.190;4.440;2022-09-16T00:20:12;32.70;;;3.40;;
69317;SDS011;56457;52.190;4.440;2022-09-16T00:21:12;26.97;;;3.83;;
69317;SDS011;56457;52.190;4.440;2022-09-16T00:22:13;23.65;;;2.72;;
69317;SDS011;56457;52.190;4.440;2022-09-16T00:23:14;28.77;;;4.10;;
69317;SDS011;56457;52.190;4.440;2022-09-16T00:24:15;22.35;;;3.38;;
69317;SDS011;56457;52.190;4.440;2022-09-16T00:25:15;23.23;;;3.90;;
69317;SDS011;56457;52.190;4.440;2022-09-16T00:26:18;33.25;;;3.33;;
69317;SDS011;56457;52.190;4.440;2022-09-16T00:27:19;34.85;;;3.80;;
69317;SDS011;56457;52.190;4.440;2022-09-16T00:28:20;28.98;;;3.00;;
69317;SDS011;56457;52.190;4.440;2022-09-16T00:29:21;25.25;;;3.33;;
69317;SDS011;56457;52.190;4.440;2022-09-16T00:30:21;18.57;;;2.63;;
69317;SDS011;56457;52.190;4.440;2022-09-16T00:31:22;20.07;;;2.50;;
69317;SDS011;56457;52.190;4.440;2022-09-16T00:32:22;24.20;;;3.35;;
69317;SDS011;56457;52.190;4.440;2022-09-16T00:33:24;24.10;;;3.28;;
69317;SDS011;56457;52.190;4.440;2022-09-16T00:34:24;20.15;;;2.80;;
69317;SDS011;56457;52.190;4.440;2022-09-16T00:35:25;19.67;;;2.60;;
69317;SDS011;56457;52.190;4.440;2022-09-16T00:36:27;24.80;;;2.30;;
69317;SDS011;56457;52.190;4.440;2022-09-16T00:37:27;21.00;;;2.38;;
69317;SDS011;56457;52.190;4.440;2022-09-16T00:38:31;22.67;;;2.38;;
69317;SDS011;56457;52.190;4.440;2022-09-16T00:39:31;20.42;;;2.47;;
69317;SDS011;56457;52.190;4.440;2022-09-16T00:40:32;24.23;;;2.85;;
69317;SDS011;56457;52.190;4.440;2022-09-16T00:41:33;18.52;;;2.28;;
69317;SDS011;56457;52.190;4.440;2022-09-16T00:42:38;13.63;;;2.65;;
69317;SDS011;56457;52.190;4.440;2022-09-16T00:43:46;17.70;;;2.88;;
69317;SDS011;56457;52.190;4.440;2022-09-16T00:46:01;14.70;;;2.33;;
69317;SDS011;56457;52.190;4.440;2022-09-16T00:47:04;8.55;;;1.30;;
69317;SDS011;56457;52.190;4.440;2022-09-16T00:48:06;14.85;;;1.48;;
69317;SDS011;56457;52.190;4.440;2022-09-16T00:49:30;16.38;;;1.63;;
69317;SDS011;56457;52.190;4.440;2022-09-16T00:50:33;7.47;;;1.30;;
69317;SDS011;56457;52.190;4.440;2022-09-16T00:51:38;9.98;;;1.00;;
69317;SDS011;56457;52.190;4.440;2022-09-16T00:52:40;12.20;;;1.25;;
69317;SDS011;56457;52.190;4.440;2022-09-16T00:53:48;7.50;;;1.23;;
69317;SDS011;56457;52.190;4.440;2022-09-16T00:54:56;14.70;;;1.52;;
69317;SDS011;56457;52.190;4.440;2022-09-16T00:55:58;10.13;;;1.60;;
69317;SDS011;56457;52.190;4.440;2022-09-16T00:57:03;14.77;;;1.50;;
69317;SDS011;56457;52.190;4.440;2022-09-16T00:58:16;16.77;;;1.90;;
69317;SDS011;56457;52.190;4.440;2022-09-16T00:59:25;15.50;;;1.88;;
69317;SDS011;56457;52.190;4.440;2022-09-16T01:00:31;19.17;;;2.10;;
69317;SDS011;56457;52.190;4.440;2022-09-16T01:01:31;28.42;;;2.38;;
69317;SDS011;56457;52.190;4.440;2022-09-16T01:02:32;16.83;;;2.13;;
69317;SDS011;56457;52.190;4.440;2022-09-16T01:03:34;9.52;;;1.48;;
69317;SDS011;56457;52.190;4.440;2022-09-16T01:05:04;10.63;;;1.30;;
69317;SDS011;56457;52.190;4.440;2022-09-16T01:06:05;11.90;;;1.38;;
69317;SDS011;56457;52.190;4.440;2022-09-16T01:07:06;15.30;;;2.03;;
69317;SDS011;56457;52.190;4.440;2022-09-16T01:08:06;14.13;;;1.77;;
69317;SDS011;56457;52.190;4.440;2022-09-16T01:09:07;17.70;;;2.20;;
69317;SDS011;56457;52.190;4.440;2022-09-16T01:10:07;27.87;;;2.67;;
69317;SDS011;56457;52.190;4.440;2022-09-16T01:11:08;13.55;;;2.15;;
69317;SDS011;56457;52.190;4.440;2022-09-16T01:12:08;30.85;;;3.50;;
69317;SDS011;56457;52.190;4.440;2022-09-16T01:13:10;19.55;;;3.35;;
69317;SDS011;56457;52.190;4.440;2022-09-16T01:14:12;26.23;;;3.72;;
69317;SDS011;56457;52.190;4.440;2022-09-16T01:15:40;29.83;;;3.10;;
69317;SDS011;56457;52.190;4.440;2022-09-16T01:17:00;16.15;;;2.65;;
69317;SDS011;56457;52.190;4.440;2022-09-16T01:21:17;28.70;;;2.90;;
69317;SDS011;56457;52.190;4.440;2022-09-16T01:26:28;17.58;;;2.67;;
69317;SDS011;56457;52.190;4.440;2022-09-16T01:31:22;8.70;;;0.90;;
69317;SDS011;56457;52.190;4.440;2022-09-16T01:33:02;14.48;;;1.30;;
69317;SDS011;56457;52.190;4.440;2022-09-16T01:34:17;8.68;;;1.42;;
69317;SDS011;56457;52.190;4.440;2022-09-16T01:35:37;10.98;;;1.33;;
69317;SDS011;56457;52.190;4.440;2022-09-16T01:43:54;22.83;;;2.53;;
69317;SDS011;56457;52.190;4.440;2022-09-16T01:47:18;23.33;;;2.40;;
69317;SDS011;56457;52.190;4.440;2022-09-16T01:52:48;20.23;;;2.60;;
69317;SDS011;56457;52.190;4.440;2022-09-16T01:56:47;19.65;;;2.63;;
69317;SDS011;56457;52.190;4.440;2022-09-16T01:59:36;25.17;;;2.35;;
69317;SDS011;56457;52.190;4.440;2022-09-16T02:03:38;13.75;;;1.95;;
69317;SDS011;56457;52.190;4.440;2022-09-16T02:04:44;8.77;;;1.75;;
69317;SDS011;56457;52.190;4.440;2022-09-16T02:05:50;11.85;;;1.88;;
69317;SDS011;56457;52.190;4.440;2022-09-16T02:06:55;8.93;;;1.85;;
69317;SDS011;56457;52.190;4.440;2022-09-16T02:08:01;21.52;;;2.10;;
69317;SDS011;56457;52.190;4.440;2022-09-16T02:09:09;14.57;;;1.95;;
69317;SDS011;56457;52.190;4.440;2022-09-16T02:10:19;18.45;;;1.52;;
69317;SDS011;56457;52.190;4.440;2022-09-16T02:11:31;14.85;;;2.10;;
69317;SDS011;56457;52.190;4.440;2022-09-16T02:13:35;20.73;;;2.03;;
69317;SDS011;56457;52.190;4.440;2022-09-16T02:14:41;16.77;;;2.00;;
69317;SDS011;56457;52.190;4.440;2022-09-16T02:15:45;16.65;;;2.30;;
69317;SDS011;56457;52.190;4.440;2022-09-16T02:18:00;9.13;;;1.52;;
69317;SDS011;56457;52.190;4.440;2022-09-16T02:19:08;12.68;;;1.85;;
69317;SDS011;56457;52.190;4.440;2022-09-16T02:20:12;6.50;;;1.33;;
69317;SDS011;56457;52.190;4.440;2022-09-16T02:21:18;11.55;;;1.33;;
69317;SDS011;56457;52.190;4.440;2022-09-16T02:22:39;12.52;;;1.55;;
69317;SDS011;56457;52.190;4.440;2022-09-16T02:23:45;15.73;;;1.73;;
69317;SDS011;56457;52.190;4.440;2022-09-16T02:24:49;9.98;;;1.58;;
69317;SDS011;56457;52.190;4.440;2022-09-16T02:25:52;13.38;;;1.67;;
69317;SDS011;56457;52.190;4.440;2022-09-16T02:26:55;14.93;;;2.08;;
69317;SDS011;56457;52.190;4.440;2022-09-16T02:28:03;15.25;;;2.03;;
69317;SDS011;56457;52.190;4.440;2022-09-16T02:29:07;16.05;;;2.15;;
69317;SDS011;56457;52.190;4.440;2022-09-16T02:30:14;17.13;;;2.38;;
69317;SDS011;56457;52.190;4.440;2022-09-16T02:31:19;17.55;;;2.25;;
69317;SDS011;56457;52.190;4.440;2022-09-16T02:32:25;16.35;;;1.80;;
69317;SDS011;56457;52.190;4.440;2022-09-16T02:33:29;23.75;;;2.95;;
69317;SDS011;56457;52.190;4.440;2022-09-16T02:34:36;22.05;;;2.40;;
69317;SDS011;56457;52.190;4.440;2022-09-16T02:35:40;23.70;;;3.08;;
69317;SDS011;56457;52.190;4.440;2022-09-16T02:36:41;19.20;;;2.97;;
69317;SDS011;56457;52.190;4.440;2022-09-16T02:37:49;25.95;;;3.40;;
69317;SDS011;56457;52.190;4.440;2022-09-16T02:38:55;31.50;;;4.22;;
69317;SDS011;56457;52.190;4.440;2022-09-16T02:41:01;28.58;;;3.72;;
69317;SDS011;56457;52.190;4.440;2022-09-16T02:43:00;11.02;;;1.98;;
69317;SDS011;56457;52.190;4.440;2022-09-16T02:45:00;14.82;;;2.10;;
69317;SDS011;56457;52.190;4.440;2022-09-16T02:49:46;22.35;;;2.22;;
69317;SDS011;56457;52.190;4.440;2022-09-16T02:52:06;26.52;;;2.70;;
69317;SDS011;56457;52.190;4.440;2022-09-16T02:54:22;29.50;;;3.45;;
69317;SDS011;56457;52.190;4.440;2022-09-16T02:56:28;32.50;;;4.10;;
69317;SDS011;56457;52.190;4.440;2022-09-16T02:58:28;27.33;;;2.80;;
69317;SDS011;56457;52.190;4.440;2022-09-16T03:00:27;20.70;;;2.78;;
69317;SDS011;56457;52.190;4.440;2022-09-16T03:02:31;27.50;;;3.38;;
69317;SDS011;56457;52.190;4.440;2022-09-16T03:04:31;27.63;;;2.88;;
69317;SDS011;56457;52.190;4.440;2022-09-16T03:06:31;27.00;;;2.88;;
69317;SDS011;56457;52.190;4.440;2022-09-16T03:08:31;27.90;;;3.67;;
69317;SDS011;56457;52.190;4.440;2022-09-16T03:10:35;31.13;;;3.90;;
69317;SDS011;56457;52.190;4.440;2022-09-16T03:12:36;26.17;;;3.90;;
69317;SDS011;56457;52.190;4.440;2022-09-16T03:16:52;23.17;;;2.90;;
69317;SDS011;56457;52.190;4.440;2022-09-16T03:18:03;20.20;;;2.67;;
69317;SDS011;56457;52.190;4.440;2022-09-16T03:19:25;27.98;;;2.90;;
69317;SDS011;56457;52.190;4.440;2022-09-16T03:22:48;19.10;;;2.45;;
69317;SDS011;56457;52.190;4.440;2022-09-16T03:24:10;24.23;;;2.95;;
69317;SDS011;56457;52.190;4.440;2022-09-16T03:28:06;18.90;;;2.47;;
69317;SDS011;56457;52.190;4.440;2022-09-16T03:29:18;26.50;;;3.70;;
69317;SDS011;56457;52.190;4.440;2022-09-16T03:30:22;23.05;;;2.95;;
69317;SDS011;56457;52.190;4.440;2022-09-16T03:31:25;20.87;;;3.63;;
69317;SDS011;56457;52.190;4.440;2022-09-16T03:33:51;34.92;;;4.28;;
69317;SDS011;56457;52.190;4.440;2022-09-16T03:36:04;30.50;;;3.97;;
69317;SDS011;56457;52.190;4.440;2022-09-16T03:37:10;36.38;;;3.88;;
69317;SDS011;56457;52.190;4.440;2022-09-16T03:38:14;30.67;;;3.47;;
69317;SDS011;56457;52.190;4.440;2022-09-16T03:39:16;34.10;;;3.63;;
69317;SDS011;56457;52.190;4.440;2022-09-16T03:40:17;28.67;;;4.05;;
69317;SDS011;56457;52.190;4.440;2022-09-16T03:41:19;34.08;;;3.78;;
69317;SDS011;56457;52.190;4.440;2022-09-16T03:42:20;19.15;;;2.60;;
69317;SDS011;56457;52.190;4.440;2022-09-16T03:43:21;19.55;;;2.40;;
69317;SDS011;56457;52.190;4.440;2022-09-16T03:44:29;22.70;;;3.10;;
69317;SDS011;56457;52.190;4.440;2022-09-16T03:45:31;25.17;;;3.20;;
69317;SDS011;56457;52.190;4.440;2022-09-16T03:46:31;18.30;;;3.57;;
69317;SDS011;56457;52.190;4.440;2022-09-16T03:47:32;21.45;;;2.83;;
69317;SDS011;56457;52.190;4.440;2022-09-16T03:48:32;25.45;;;3.90;;
69317;SDS011;56457;52.190;4.440;2022-09-16T03:49:33;21.03;;;2.50;;
69317;SDS011;56457;52.190;4.440;2022-09-16T03:50:34;21.88;;;3.35;;
69317;SDS011;56457;52.190;4.440;2022-09-16T03:51:35;31.90;;;3.35;;
69317;SDS011;56457;52.190;4.440;2022-09-16T03:52:36;27.33;;;2.83;;
69317;SDS011;56457;52.190;4.440;2022-09-16T03:53:36;23.67;;;2.90;;
69317;SDS011;56457;52.190;4.440;2022-09-16T03:54:37;29.58;;;3.88;;
69317;SDS011;56457;52.190;4.440;2022-09-16T03:55:38;23.33;;;2.95;;
69317;SDS011;56457;52.190;4.440;2022-09-16T03:56:38;18.47;;;2.10;;
69317;SDS011;56457;52.190;4.440;2022-09-16T03:57:38;22.30;;;3.23;;
69317;SDS011;56457;52.190;4.440;2022-09-16T03:58:39;20.65;;;2.90;;
69317;SDS011;56457;52.190;4.440;2022-09-16T03:59:39;21.17;;;2.97;;
69317;SDS011;56457;52.190;4.440;2022-09-16T04:00:41;19.20;;;3.15;;
69317;SDS011;56457;52.190;4.440;2022-09-16T04:01:41;19.63;;;3.08;;
69317;SDS011;56457;52.190;4.440;2022-09-16T04:02:42;20.25;;;2.50;;
69317;SDS011;56457;52.190;4.440;2022-09-16T04:03:43;20.83;;;2.50;;
69317;SDS011;56457;52.190;4.440;2022-09-16T04:04:43;18.48;;;2.53;;
69317;SDS011;56457;52.190;4.440;2022-09-16T04:05:44;13.38;;;2.92;;
69317;SDS011;56457;52.190;4.440;2022-09-16T04:06:44;24.37;;;3.03;;
69317;SDS011;56457;52.190;4.440;2022-09-16T04:07:47;29.75;;;2.72;;
69317;SDS011;56457;52.190;4.440;2022-09-16T04:08:48;24.42;;;3.33;;
69317;SDS011;56457;52.190;4.440;2022-09-16T04:09:50;22.92;;;2.53;;
69317;SDS011;56457;52.190;4.440;2022-09-16T04:10:54;28.73;;;3.23;;
69317;SDS011;56457;52.190;4.440;2022-09-16T04:11:59;16.80;;;2.40;;
69317;SDS011;56457;52.190;4.440;2022-09-16T04:13:00;21.70;;;3.03;;
69317;SDS011;56457;52.190;4.440;2022-09-16T04:14:00;18.63;;;3.58;;
69317;SDS011;56457;52.190;4.440;2022-09-16T04:15:01;23.27;;;3.60;;
69317;SDS011;56457;52.190;4.440;2022-09-16T04:16:02;18.23;;;2.73;;
69317;SDS011;56457;52.190;4.440;2022-09-16T04:17:03;25.75;;;3.08;;
69317;SDS011;56457;52.190;4.440;2022-09-16T04:18:03;27.30;;;2.97;;
69317;SDS011;56457;52.190;4.440;2022-09-16T04:19:04;31.73;;;3.47;;
69317;SDS011;56457;52.190;4.440;2022-09-16T04:20:04;15.68;;;2.42;;
69317;SDS011;56457;52.190;4.440;2022-09-16T04:21:08;20.77;;;2.78;;
69317;SDS011;56457;52.190;4.440;2022-09-16T04:22:08;12.05;;;2.13;;
69317;SDS011;56457;52.190;4.440;2022-09-16T04:23:09;31.50;;;2.93;;
69317;SDS011;56457;52.190;4.440;2022-09-16T04:24:09;18.53;;;2.63;;
69317;SDS011;56457;52.190;4.440;2022-09-16T04:25:10;19.40;;;2.83;;
69317;SDS011;56457;52.190;4.440;2022-09-16T04:26:10;15.47;;;2.07;;
69317;SDS011;56457;52.190;4.440;2022-09-16T04:27:11;13.95;;;2.58;;
69317;SDS011;56457;52.190;4.440;2022-09-16T04:28:11;15.43;;;2.90;;
69317;SDS011;56457;52.190;4.440;2022-09-16T04:29:12;17.80;;;2.37;;
69317;SDS011;56457;52.190;4.440;2022-09-16T04:30:12;17.10;;;2.47;;
69317;SDS011;56457;52.190;4.440;2022-09-16T04:31:14;21.17;;;2.60;;
69317;SDS011;56457;52.190;4.440;2022-09-16T04:32:14;19.55;;;3.75;;
69317;SDS011;56457;52.190;4.440;2022-09-16T04:33:15;15.07;;;2.63;;
69317;SDS011;56457;52.190;4.440;2022-09-16T04:34:15;15.32;;;2.17;;
69317;SDS011;56457;52.190;4.440;2022-09-16T04:35:16;14.73;;;2.22;;
69317;SDS011;56457;52.190;4.440;2022-09-16T04:36:18;24.83;;;2.95;;
69317;SDS011;56457;52.190;4.440;2022-09-16T04:37:19;22.98;;;2.85;;
69317;SDS011;56457;52.190;4.440;2022-09-16T04:38:20;30.97;;;4.27;;
69317;SDS011;56457;52.190;4.440;2022-09-16T04:39:20;24.90;;;4.07;;
69317;SDS011;56457;52.190;4.440;2022-09-16T04:40:21;31.60;;;3.40;;
69317;SDS011;56457;52.190;4.440;2022-09-16T04:41:22;27.30;;;3.03;;
69317;SDS011;56457;52.190;4.440;2022-09-16T04:42:24;22.77;;;3.28;;
69317;SDS011;56457;52.190;4.440;2022-09-16T04:43:24;24.90;;;4.00;;
69317;SDS011;56457;52.190;4.440;2022-09-16T04:44:24;19.67;;;2.40;;
69317;SDS011;56457;52.190;4.440;2022-09-16T04:45:26;21.35;;;2.50;;
69317;SDS011;56457;52.190;4.440;2022-09-16T04:46:27;20.42;;;2.80;;
69317;SDS011;56457;52.190;4.440;2022-09-16T04:47:29;19.05;;;3.08;;
69317;SDS011;56457;52.190;4.440;2022-09-16T04:48:30;23.33;;;3.25;;
69317;SDS011;56457;52.190;4.440;2022-09-16T04:49:30;21.00;;;3.05;;
69317;SDS011;56457;52.190;4.440;2022-09-16T04:50:31;21.17;;;3.37;;
69317;SDS011;56457;52.190;4.440;2022-09-16T04:51:31;17.87;;;2.60;;
69317;SDS011;56457;52.190;4.440;2022-09-16T04:52:32;23.92;;;4.38;;
69317;SDS011;56457;52.190;4.440;2022-09-16T04:53:33;13.30;;;1.83;;
69317;SDS011;56457;52.190;4.440;2022-09-16T04:54:34;16.25;;;2.60;;
69317;SDS011;56457;52.190;4.440;2022-09-16T04:55:35;21.87;;;2.63;;
69317;SDS011;56457;52.190;4.440;2022-09-16T04:57:36;22.50;;;2.85;;
69317;SDS011;56457;52.190;4.440;2022-09-16T04:58:37;16.80;;;2.28;;
69317;SDS011;56457;52.190;4.440;2022-09-16T04:59:38;18.50;;;2.17;;
69317;SDS011;56457;52.190;4.440;2022-09-16T05:00:38;15.23;;;2.45;;
69317;SDS011;56457;52.190;4.440;2022-09-16T05:01:39;15.55;;;2.33;;
69317;SDS011;56457;52.190;4.440;2022-09-16T05:03:44;18.70;;;2.70;;
69317;SDS011;56457;52.190;4.440;2022-09-16T05:04:46;13.60;;;1.85;;
69317;SDS011;56457;52.190;4.440;2022-09-16T05:05:47;18.58;;;2.47;;
69317;SDS011;56457;52.190;4.440;2022-09-16T05:06:47;12.10;;;2.50;;
69317;SDS011;56457;52.190;4.440;2022-09-16T05:07:48;14.68;;;2.30;;
69317;SDS011;56457;52.190;4.440;2022-09-16T05:08:48;24.08;;;2.83;;
69317;SDS011;56457;52.190;4.440;2022-09-16T05:09:50;12.98;;;2.67;;
69317;SDS011;56457;52.190;4.440;2022-09-16T05:10:51;20.70;;;2.45;;
69317;SDS011;56457;52.190;4.440;2022-09-16T05:11:51;11.87;;;1.90;;
69317;SDS011;56457;52.190;4.440;2022-09-16T05:12:52;16.27;;;2.03;;
69317;SDS011;56457;52.190;4.440;2022-09-16T05:13:54;13.60;;;2.40;;
69317;SDS011;56457;52.190;4.440;2022-09-16T05:14:57;17.48;;;2.10;;
69317;SDS011;56457;52.190;4.440;2022-09-16T05:16:05;17.50;;;2.65;;
69317;SDS011;56457;52.190;4.440;2022-09-16T05:17:07;13.23;;;2.38;;
69317;SDS011;56457;52.190;4.440;2022-09-16T05:18:07;13.90;;;1.90;;
69317;SDS011;56457;52.190;4.440;2022-09-16T05:19:09;22.90;;;2.53;;
69317;SDS011;56457;52.190;4.440;2022-09-16T05:20:12;20.92;;;2.83;;
69317;SDS011;56457;52.190;4.440;2022-09-16T05:21:14;19.85;;;2.42;;
69317;SDS011;56457;52.190;4.440;2022-09-16T05:22:17;17.23;;;2.42;;
69317;SDS011;56457;52.190;4.440;2022-09-16T05:23:17;8.38;;;2.10;;
69317;SDS011;56457;52.190;4.440;2022-09-16T05:24:18;19.77;;;2.47;;
69317;SDS011;56457;52.190;4.440;2022-09-16T05:25:18;15.63;;;1.90;;
69317;SDS011;56457;52.190;4.440;2022-09-16T05:26:20;18.23;;;2.85;;
69317;SDS011;56457;52.190;4.440;2022-09-16T05:27:22;11.07;;;1.77;;
69317;SDS011;56457;52.190;4.440;2022-09-16T05:28:23;9.55;;;1.92;;
69317;SDS011;56457;52.190;4.440;2022-09-16T05:29:23;12.47;;;2.33;;
69317;SDS011;56457;52.190;4.440;2022-09-16T05:30:23;9.97;;;1.73;;
69317;SDS011;56457;52.190;4.440;2022-09-16T05:31:25;19.27;;;2.47;;
69317;SDS011;56457;52.190;4.440;2022-09-16T05:32:27;16.95;;;1.90;;
69317;SDS011;56457;52.190;4.440;2022-09-16T05:33:27;8.53;;;1.90;;
69317;SDS011;56457;52.190;4.440;2022-09-16T05:34:28;15.20;;;2.38;;
69317;SDS011;56457;52.190;4.440;2022-09-16T05:35:28;14.73;;;2.42;;
69317;SDS011;56457;52.190;4.440;2022-09-16T05:36:30;19.95;;;2.40;;
69317;SDS011;56457;52.190;4.440;2022-09-16T05:37:32;14.88;;;2.58;;
69317;SDS011;56457;52.190;4.440;2022-09-16T05:38:32;10.10;;;2.07;;
69317;SDS011;56457;52.190;4.440;2022-09-16T05:39:33;14.07;;;2.42;;
69317;SDS011;56457;52.190;4.440;2022-09-16T05:40:33;16.08;;;2.30;;
69317;SDS011;56457;52.190;4.440;2022-09-16T05:41:34;15.32;;;2.70;;
69317;SDS011;56457;52.190;4.440;2022-09-16T05:42:34;17.02;;;2.78;;
69317;SDS011;56457;52.190;4.440;2022-09-16T05:43:35;13.43;;;1.98;;
69317;SDS011;56457;52.190;4.440;2022-09-16T05:44:36;30.15;;;2.58;;
69317;SDS011;56457;52.190;4.440;2022-09-16T05:45:37;18.87;;;2.53;;
69317;SDS011;56457;52.190;4.440;2022-09-16T05:46:37;27.05;;;4.18;;
69317;SDS011;56457;52.190;4.440;2022-09-16T05:47:39;28.02;;;3.97;;
69317;SDS011;56457;52.190;4.440;2022-09-16T05:48:40;33.97;;;5.57;;
69317;SDS011;56457;52.190;4.440;2022-09-16T05:49:40;42.25;;;5.88;;
69317;SDS011;56457;52.190;4.440;2022-09-16T05:50:40;36.15;;;5.43;;
69317;SDS011;56457;52.190;4.440;2022-09-16T05:51:41;28.70;;;4.40;;
69317;SDS011;56457;52.190;4.440;2022-09-16T05:52:41;23.43;;;3.70;;
69317;SDS011;56457;52.190;4.440;2022-09-16T05:53:42;38.93;;;5.23;;
69317;SDS011;56457;52.190;4.440;2022-09-16T05:54:42;55.45;;;6.50;;
69317;SDS011;56457;52.190;4.440;2022-09-16T05:55:52;40.85;;;4.93;;
69317;SDS011;56457;52.190;4.440;2022-09-16T05:57:03;25.08;;;3.42;;
69317;SDS011;56457;52.190;4.440;2022-09-16T05:58:04;16.00;;;2.45;;
69317;SDS011;56457;52.190;4.440;2022-09-16T05:59:04;19.77;;;2.30;;
69317;SDS011;56457;52.190;4.440;2022-09-16T06:00:05;17.08;;;2.67;;
69317;SDS011;56457;52.190;4.440;2022-09-16T06:01:07;15.52;;;2.65;;
69317;SDS011;56457;52.190;4.440;2022-09-16T06:02:12;8.90;;;1.25;;
69317;SDS011;56457;52.190;4.440;2022-09-16T06:03:13;22.70;;;2.35;;
69317;SDS011;56457;52.190;4.440;2022-09-16T06:04:13;17.77;;;2.00;;
69317;SDS011;56457;52.190;4.440;2022-09-16T06:05:17;13.07;;;1.98;;
69317;SDS011;56457;52.190;4.440;2022-09-16T06:06:25;12.82;;;2.05;;
69317;SDS011;56457;52.190;4.440;2022-09-16T06:07:27;25.17;;;2.30;;
69317;SDS011;56457;52.190;4.440;2022-09-16T06:08:28;21.17;;;2.67;;
69317;SDS011;56457;52.190;4.440;2022-09-16T06:09:29;18.05;;;2.45;;
69317;SDS011;56457;52.190;4.440;2022-09-16T06:10:30;26.30;;;3.20;;
69317;SDS011;56457;52.190;4.440;2022-09-16T06:11:30;24.87;;;3.30;;
69317;SDS011;56457;52.190;4.440;2022-09-16T06:12:31;15.50;;;2.75;;
69317;SDS011;56457;52.190;4.440;2022-09-16T06:13:31;21.27;;;3.33;;
69317;SDS011;56457;52.190;4.440;2022-09-16T06:14:32;24.77;;;2.65;;
69317;SDS011;56457;52.190;4.440;2022-09-16T06:15:33;17.80;;;3.42;;
69317;SDS011;56457;52.190;4.440;2022-09-16T06:16:34;22.92;;;2.53;;
69317;SDS011;56457;52.190;4.440;2022-09-16T06:17:36;25.90;;;2.70;;
69317;SDS011;56457;52.190;4.440;2022-09-16T06:18:36;27.57;;;3.23;;
69317;SDS011;56457;52.190;4.440;2022-09-16T06:19:37;26.92;;;3.60;;
69317;SDS011;56457;52.190;4.440;2022-09-16T06:20:37;27.63;;;2.93;;
69317;SDS011;56457;52.190;4.440;2022-09-16T06:21:38;19.55;;;2.80;;
69317;SDS011;56457;52.190;4.440;2022-09-16T06:22:39;30.98;;;2.80;;
69317;SDS011;56457;52.190;4.440;2022-09-16T06:23:40;32.72;;;3.22;;
69317;SDS011;56457;52.190;4.440;2022-09-16T06:24:40;24.00;;;2.40;;
69317;SDS011;56457;52.190;4.440;2022-09-16T06:25:41;19.57;;;2.67;;
69317;SDS011;56457;52.190;4.440;2022-09-16T06:26:42;23.15;;;3.90;;
69317;SDS011;56457;52.190;4.440;2022-09-16T06:27:44;23.92;;;2.90;;
69317;SDS011;56457;52.190;4.440;2022-09-16T06:28:44;20.73;;;2.80;;
69317;SDS011;56457;52.190;4.440;2022-09-16T06:29:46;21.02;;;2.28;;
69317;SDS011;56457;52.190;4.440;2022-09-16T06:30:46;19.13;;;2.63;;
69317;SDS011;56457;52.190;4.440;2022-09-16T06:31:46;17.27;;;2.83;;
69317;SDS011;56457;52.190;4.440;2022-09-16T06:32:47;19.40;;;2.23;;
69317;SDS011;56457;52.190;4.440;2022-09-16T06:33:47;11.57;;;1.67;;
69317;SDS011;56457;52.190;4.440;2022-09-16T06:34:49;24.38;;;2.67;;
69317;SDS011;56457;52.190;4.440;2022-09-16T06:35:49;20.97;;;2.60;;
69317;SDS011;56457;52.190;4.440;2022-09-16T06:36:52;20.10;;;2.97;;
69317;SDS011;56457;52.190;4.440;2022-09-16T06:37:52;15.97;;;2.43;;
69317;SDS011;56457;52.190;4.440;2022-09-16T06:38:53;19.92;;;2.38;;
69317;SDS011;56457;52.190;4.440;2022-09-16T06:39:54;18.35;;;2.20;;
69317;SDS011;56457;52.190;4.440;2022-09-16T06:40:58;18.20;;;2.10;;
69317;SDS011;56457;52.190;4.440;2022-09-16T06:42:02;21.35;;;2.13;;
69317;SDS011;56457;52.190;4.440;2022-09-16T06:43:06;18.75;;;2.25;;
69317;SDS011;56457;52.190;4.440;2022-09-16T06:44:06;25.03;;;2.57;;
69317;SDS011;56457;52.190;4.440;2022-09-16T06:45:07;17.98;;;2.47;;
69317;SDS011;56457;52.190;4.440;2022-09-16T06:46:12;12.82;;;2.65;;
69317;SDS011;56457;52.190;4.440;2022-09-16T06:47:17;10.90;;;2.25;;
69317;SDS011;56457;52.190;4.440;2022-09-16T06:48:17;9.33;;;1.23;;
69317;SDS011;56457;52.190;4.440;2022-09-16T06:49:18;8.93;;;2.00;;
69317;SDS011;56457;52.190;4.440;2022-09-16T06:50:18;13.17;;;2.97;;
69317;SDS011;56457;52.190;4.440;2022-09-16T06:51:22;17.10;;;2.60;;
69317;SDS011;56457;52.190;4.440;2022-09-16T06:52:28;18.65;;;2.53;;
69317;SDS011;56457;52.190;4.440;2022-09-16T06:53:29;16.23;;;2.20;;
69317;SDS011;56457;52.190;4.440;2022-09-16T06:54:30;14.20;;;2.08;;
69317;SDS011;56457;52.190;4.440;2022-09-16T06:55:30;20.50;;;2.70;;
69317;SDS011;56457;52.190;4.440;2022-09-16T06:56:31;18.20;;;2.60;;
69317;SDS011;56457;52.190;4.440;2022-09-16T06:57:35;16.80;;;2.67;;
69317;SDS011;56457;52.190;4.440;2022-09-16T06:58:35;18.17;;;2.40;;
69317;SDS011;56457;52.190;4.440;2022-09-16T06:59:36;18.60;;;3.30;;
69317;SDS011;56457;52.190;4.440;2022-09-16T07:00:36;28.77;;;3.20;;
69317;SDS011;56457;52.190;4.440;2022-09-16T07:01:37;15.70;;;2.83;;
69317;SDS011;56457;52.190;4.440;2022-09-16T07:02:37;24.02;;;2.97;;
69317;SDS011;56457;52.190;4.440;2022-09-16T07:03:38;20.03;;;2.73;;
69317;SDS011;56457;52.190;4.440;2022-09-16T07:04:41;10.13;;;1.65;;
69317;SDS011;56457;52.190;4.440;2022-09-16T07:05:42;19.35;;;3.15;;
69317;SDS011;56457;52.190;4.440;2022-09-16T07:06:44;18.27;;;3.67;;
69317;SDS011;56457;52.190;4.440;2022-09-16T07:07:45;15.88;;;3.20;;
69317;SDS011;56457;52.190;4.440;2022-09-16T07:08:46;15.63;;;3.72;;
69317;SDS011;56457;52.190;4.440;2022-09-16T07:09:47;20.63;;;2.40;;
69317;SDS011;56457;52.190;4.440;2022-09-16T07:10:57;19.27;;;2.75;;
69317;SDS011;56457;52.190;4.440;2022-09-16T07:13:00;7.97;;;1.60;;
69317;SDS011;56457;52.190;4.440;2022-09-16T07:14:00;14.10;;;2.35;;
69317;SDS011;56457;52.190;4.440;2022-09-16T07:15:01;14.10;;;2.30;;
69317;SDS011;56457;52.190;4.440;2022-09-16T07:16:02;16.55;;;2.40;;
69317;SDS011;56457;52.190;4.440;2022-09-16T07:17:13;19.75;;;2.60;;
69317;SDS011;56457;52.190;4.440;2022-09-16T07:18:13;13.18;;;2.65;;
69317;SDS011;56457;52.190;4.440;2022-09-16T07:19:14;15.13;;;2.53;;
69317;SDS011;56457;52.190;4.440;2022-09-16T07:20:14;15.73;;;2.75;;
69317;SDS011;56457;52.190;4.440;2022-09-16T07:21:17;14.13;;;2.03;;
69317;SDS011;56457;52.190;4.440;2022-09-16T07:22:19;15.20;;;2.70;;